Accomac, Virginia
Current Conditions -  °F | °C
As of 7:15 AM on Tuesday 27 Jan 2015 (Local Time) from KMFV Reporting Station
Overcast Overcast  
Wind Chill: 21°   Ceiling: 1800
Heat Index: 30°   Visibility: 10mi
Dew Point: 23°   Wind: 12mph
Humidity: 75%   Direction: 340°NNW
Pressure: 29.71"   Gusts: 21mph
Location:  37.72°N, 75.67°W
Report Text: KMFV 271215Z AUTO 34010G18KT 10SM OVC018 M01/M05 A2971 RMK AO2
Loading
Personal Weather Stations






























Interactive Weather Map New forecast layout! Learn more

10-Day Weather Forecast

Advertisements
Track Severe Weather on mobile